sensor_id;sensor_type;location;lat;lon;timestamp;P1;durP1;ratioP1;P2;durP2;ratioP2
75297;SDS011;63896;45.990;18.688;2023-04-21T08:30:46;17.60;;;4.97;;
75297;SDS011;63896;45.990;18.688;2023-04-21T08:33:50;13.68;;;4.57;;
75297;SDS011;63896;45.990;18.688;2023-04-21T08:37:03;17.45;;;5.05;;
75297;SDS011;63896;45.990;18.688;2023-04-21T08:40:06;10.57;;;4.90;;
75297;SDS011;63896;45.990;18.688;2023-04-21T08:43:09;16.63;;;4.60;;
75297;SDS011;63896;45.990;18.688;2023-04-21T08:46:13;14.98;;;4.72;;
75297;SDS011;63896;45.990;18.688;2023-04-21T08:49:18;10.95;;;4.63;;
75297;SDS011;63896;45.990;18.688;2023-04-21T08:52:23;12.10;;;4.05;;
75297;SDS011;63896;45.990;18.688;2023-04-21T08:55:28;13.68;;;4.13;;
75297;SDS011;63896;45.990;18.688;2023-04-21T08:58:34;9.73;;;4.20;;
75297;SDS011;63896;45.990;18.688;2023-04-21T09:05:10;13.77;;;4.40;;
75297;SDS011;63896;45.990;18.688;2023-04-21T09:08:25;16.98;;;4.28;;
75297;SDS011;63896;45.990;18.688;2023-04-21T09:11:36;16.42;;;4.55;;
75297;SDS011;63896;45.990;18.688;2023-04-21T09:14:39;13.63;;;4.10;;
75297;SDS011;63896;45.990;18.688;2023-04-21T09:17:44;9.52;;;3.85;;
75297;SDS011;63896;45.990;18.688;2023-04-21T09:20:48;10.73;;;4.20;;
75297;SDS011;63896;45.990;18.688;2023-04-21T09:23:55;13.85;;;3.95;;
75297;SDS011;63896;45.990;18.688;2023-04-21T09:26:58;11.77;;;3.70;;
75297;SDS011;63896;45.990;18.688;2023-04-21T09:30:05;17.37;;;4.13;;
75297;SDS011;63896;45.990;18.688;2023-04-21T09:33:15;13.82;;;3.45;;
75297;SDS011;63896;45.990;18.688;2023-04-21T09:40:42;10.95;;;3.90;;
75297;SDS011;63896;45.990;18.688;2023-04-21T09:43:45;9.68;;;3.50;;
75297;SDS011;63896;45.990;18.688;2023-04-21T09:46:49;10.13;;;3.97;;
75297;SDS011;63896;45.990;18.688;2023-04-21T09:49:55;11.10;;;3.90;;
75297;SDS011;63896;45.990;18.688;2023-04-21T09:53:00;15.13;;;4.13;;
75297;SDS011;63896;45.990;18.688;2023-04-21T09:56:11;8.88;;;3.70;;
75297;SDS011;63896;45.990;18.688;2023-04-21T09:59:19;14.32;;;3.90;;
75297;SDS011;63896;45.990;18.688;2023-04-21T10:02:31;13.67;;;3.87;;
75297;SDS011;63896;45.990;18.688;2023-04-21T10:05:38;15.73;;;3.50;;
75297;SDS011;63896;45.990;18.688;2023-04-21T10:08:46;15.70;;;4.15;;
75297;SDS011;63896;45.990;18.688;2023-04-21T10:12:14;10.60;;;3.75;;
75297;SDS011;63896;45.990;18.688;2023-04-21T10:15:33;13.52;;;4.00;;
75297;SDS011;63896;45.990;18.688;2023-04-21T10:18:44;16.30;;;3.83;;
75297;SDS011;63896;45.990;18.688;2023-04-21T10:21:48;14.23;;;3.92;;
75297;SDS011;63896;45.990;18.688;2023-04-21T10:24:53;10.95;;;3.65;;
75297;SDS011;63896;45.990;18.688;2023-04-21T10:27:57;9.20;;;3.83;;
75297;SDS011;63896;45.990;18.688;2023-04-21T10:31:15;12.50;;;3.88;;
75297;SDS011;63896;45.990;18.688;2023-04-21T10:34:37;8.97;;;3.73;;
75297;SDS011;63896;45.990;18.688;2023-04-21T10:37:40;15.18;;;4.03;;
75297;SDS011;63896;45.990;18.688;2023-04-21T10:40:44;17.02;;;3.80;;
75297;SDS011;63896;45.990;18.688;2023-04-21T10:43:47;12.48;;;4.05;;
75297;SDS011;63896;45.990;18.688;2023-04-21T10:46:56;14.00;;;3.70;;
75297;SDS011;63896;45.990;18.688;2023-04-21T10:50:01;12.10;;;3.67;;
75297;SDS011;63896;45.990;18.688;2023-04-21T10:53:18;9.95;;;3.85;;
75297;SDS011;63896;45.990;18.688;2023-04-21T10:56:21;12.18;;;3.90;;
75297;SDS011;63896;45.990;18.688;2023-04-21T10:59:25;9.13;;;3.55;;
75297;SDS011;63896;45.990;18.688;2023-04-21T11:02:28;13.00;;;3.80;;
75297;SDS011;63896;45.990;18.688;2023-04-21T11:05:36;13.20;;;3.77;;
75297;SDS011;63896;45.990;18.688;2023-04-21T11:08:55;7.95;;;3.88;;
75297;SDS011;63896;45.990;18.688;2023-04-21T11:11:59;12.10;;;3.95;;
75297;SDS011;63896;45.990;18.688;2023-04-21T11:15:07;9.88;;;4.05;;
75297;SDS011;63896;45.990;18.688;2023-04-21T11:18:11;15.32;;;4.25;;
75297;SDS011;63896;45.990;18.688;2023-04-21T11:21:18;8.43;;;4.03;;
75297;SDS011;63896;45.990;18.688;2023-04-21T11:24:35;9.13;;;4.20;;
75297;SDS011;63896;45.990;18.688;2023-04-21T11:27:38;10.48;;;4.20;;
75297;SDS011;63896;45.990;18.688;2023-04-21T11:30:41;14.40;;;4.50;;
75297;SDS011;63896;45.990;18.688;2023-04-21T11:33:44;14.63;;;4.25;;
75297;SDS011;63896;45.990;18.688;2023-04-21T11:36:47;12.07;;;4.23;;
75297;SDS011;63896;45.990;18.688;2023-04-21T11:39:55;9.45;;;3.70;;
75297;SDS011;63896;45.990;18.688;2023-04-21T11:43:02;14.38;;;3.67;;
75297;SDS011;63896;45.990;18.688;2023-04-21T11:46:22;10.68;;;3.78;;
75297;SDS011;63896;45.990;18.688;2023-04-21T11:49:25;8.25;;;3.53;;
75297;SDS011;63896;45.990;18.688;2023-04-21T11:52:33;11.80;;;3.90;;
75297;SDS011;63896;45.990;18.688;2023-04-21T11:55:42;11.40;;;3.33;;
75297;SDS011;63896;45.990;18.688;2023-04-21T11:58:49;11.82;;;3.60;;
75297;SDS011;63896;45.990;18.688;2023-04-21T12:01:54;10.57;;;3.60;;
75297;SDS011;63896;45.990;18.688;2023-04-21T12:05:01;10.88;;;3.00;;
75297;SDS011;63896;45.990;18.688;2023-04-21T12:08:13;10.47;;;3.07;;
75297;SDS011;63896;45.990;18.688;2023-04-21T12:11:17;9.68;;;3.30;;
75297;SDS011;63896;45.990;18.688;2023-04-21T12:14:21;7.47;;;3.00;;
75297;SDS011;63896;45.990;18.688;2023-04-21T12:17:25;6.25;;;2.88;;
75297;SDS011;63896;45.990;18.688;2023-04-21T12:20:28;11.93;;;3.22;;
75297;SDS011;63896;45.990;18.688;2023-04-21T12:27:03;7.85;;;3.15;;
75297;SDS011;63896;45.990;18.688;2023-04-21T12:30:07;8.05;;;3.33;;
75297;SDS011;63896;45.990;18.688;2023-04-21T12:33:11;12.93;;;3.47;;
75297;SDS011;63896;45.990;18.688;2023-04-21T12:36:14;11.27;;;3.10;;
75297;SDS011;63896;45.990;18.688;2023-04-21T12:39:18;13.57;;;3.57;;
75297;SDS011;63896;45.990;18.688;2023-04-21T12:42:22;4.72;;;2.85;;
75297;SDS011;63896;45.990;18.688;2023-04-21T12:45:25;9.40;;;2.75;;
75297;SDS011;63896;45.990;18.688;2023-04-21T12:48:28;11.57;;;3.25;;
75297;SDS011;63896;45.990;18.688;2023-04-21T12:51:31;9.82;;;3.42;;
75297;SDS011;63896;45.990;18.688;2023-04-21T12:54:34;17.13;;;3.20;;
75297;SDS011;63896;45.990;18.688;2023-04-21T12:57:37;11.88;;;3.00;;
75297;SDS011;63896;45.990;18.688;2023-04-21T13:00:40;7.70;;;2.50;;
75297;SDS011;63896;45.990;18.688;2023-04-21T13:03:44;16.17;;;2.92;;
75297;SDS011;63896;45.990;18.688;2023-04-21T13:06:49;12.20;;;3.13;;
75297;SDS011;63896;45.990;18.688;2023-04-21T13:09:52;10.57;;;3.50;;
75297;SDS011;63896;45.990;18.688;2023-04-21T13:12:55;11.25;;;3.40;;
75297;SDS011;63896;45.990;18.688;2023-04-21T13:15:58;20.10;;;3.05;;
75297;SDS011;63896;45.990;18.688;2023-04-21T13:19:01;14.73;;;3.67;;
75297;SDS011;63896;45.990;18.688;2023-04-21T13:22:04;8.23;;;2.67;;
75297;SDS011;63896;45.990;18.688;2023-04-21T13:25:07;5.63;;;2.60;;
75297;SDS011;63896;45.990;18.688;2023-04-21T13:28:10;8.65;;;2.72;;
75297;SDS011;63896;45.990;18.688;2023-04-21T13:31:15;6.75;;;2.92;;
75297;SDS011;63896;45.990;18.688;2023-04-21T13:34:18;10.40;;;3.42;;
75297;SDS011;63896;45.990;18.688;2023-04-21T13:37:21;11.52;;;3.20;;
75297;SDS011;63896;45.990;18.688;2023-04-21T13:40:24;12.13;;;2.73;;
75297;SDS011;63896;45.990;18.688;2023-04-21T13:43:27;6.63;;;2.55;;
75297;SDS011;63896;45.990;18.688;2023-04-21T13:46:29;11.63;;;3.65;;
75297;SDS011;63896;45.990;18.688;2023-04-21T13:49:33;9.82;;;3.45;;
75297;SDS011;63896;45.990;18.688;2023-04-21T13:52:36;5.80;;;2.47;;
75297;SDS011;63896;45.990;18.688;2023-04-21T13:55:39;8.73;;;2.87;;
75297;SDS011;63896;45.990;18.688;2023-04-21T13:58:42;12.73;;;2.95;;
75297;SDS011;63896;45.990;18.688;2023-04-21T14:01:45;4.75;;;2.47;;
75297;SDS011;63896;45.990;18.688;2023-04-21T14:04:48;7.53;;;2.40;;
75297;SDS011;63896;45.990;18.688;2023-04-21T14:07:52;8.50;;;3.00;;
75297;SDS011;63896;45.990;18.688;2023-04-21T14:10:55;6.13;;;2.20;;
75297;SDS011;63896;45.990;18.688;2023-04-21T14:13:59;11.57;;;2.60;;
75297;SDS011;63896;45.990;18.688;2023-04-21T14:17:06;11.25;;;2.72;;
75297;SDS011;63896;45.990;18.688;2023-04-21T14:20:09;7.10;;;2.25;;
75297;SDS011;63896;45.990;18.688;2023-04-21T14:23:12;8.20;;;2.35;;
75297;SDS011;63896;45.990;18.688;2023-04-21T14:26:15;6.60;;;2.43;;
75297;SDS011;63896;45.990;18.688;2023-04-21T14:29:18;10.80;;;2.50;;
75297;SDS011;63896;45.990;18.688;2023-04-21T14:32:21;8.23;;;2.20;;
75297;SDS011;63896;45.990;18.688;2023-04-21T14:35:24;8.18;;;2.20;;
75297;SDS011;63896;45.990;18.688;2023-04-21T14:38:27;6.22;;;2.00;;
75297;SDS011;63896;45.990;18.688;2023-04-21T14:41:32;3.80;;;2.40;;
75297;SDS011;63896;45.990;18.688;2023-04-21T14:44:37;7.13;;;2.45;;
75297;SDS011;63896;45.990;18.688;2023-04-21T14:47:40;6.45;;;2.10;;
75297;SDS011;63896;45.990;18.688;2023-04-21T14:50:43;6.68;;;1.73;;
75297;SDS011;63896;45.990;18.688;2023-04-21T14:53:46;10.40;;;1.80;;
75297;SDS011;63896;45.990;18.688;2023-04-21T14:56:49;6.97;;;1.90;;
75297;SDS011;63896;45.990;18.688;2023-04-21T14:59:52;7.13;;;2.08;;
75297;SDS011;63896;45.990;18.688;2023-04-21T15:02:55;7.97;;;2.40;;
75297;SDS011;63896;45.990;18.688;2023-04-21T15:05:58;4.38;;;1.67;;
75297;SDS011;63896;45.990;18.688;2023-04-21T15:09:01;5.05;;;1.73;;
75297;SDS011;63896;45.990;18.688;2023-04-21T15:12:05;6.27;;;1.70;;
75297;SDS011;63896;45.990;18.688;2023-04-21T15:15:09;7.32;;;1.63;;
75297;SDS011;63896;45.990;18.688;2023-04-21T15:18:12;3.97;;;1.65;;
75297;SDS011;63896;45.990;18.688;2023-04-21T15:21:15;15.48;;;2.08;;
75297;SDS011;63896;45.990;18.688;2023-04-21T15:24:18;6.85;;;1.60;;
75297;SDS011;63896;45.990;18.688;2023-04-21T15:27:21;6.10;;;2.07;;
75297;SDS011;63896;45.990;18.688;2023-04-21T15:30:24;6.07;;;1.50;;
75297;SDS011;63896;45.990;18.688;2023-04-21T15:33:27;9.43;;;1.70;;
75297;SDS011;63896;45.990;18.688;2023-04-21T15:36:30;8.68;;;1.70;;
75297;SDS011;63896;45.990;18.688;2023-04-21T15:39:33;12.00;;;2.22;;
75297;SDS011;63896;45.990;18.688;2023-04-21T15:42:37;11.27;;;1.87;;
75297;SDS011;63896;45.990;18.688;2023-04-21T15:45:40;6.68;;;1.70;;
75297;SDS011;63896;45.990;18.688;2023-04-21T15:48:43;7.38;;;1.73;;
75297;SDS011;63896;45.990;18.688;2023-04-21T15:51:46;10.07;;;1.73;;
75297;SDS011;63896;45.990;18.688;2023-04-21T15:54:49;6.97;;;1.75;;
75297;SDS011;63896;45.990;18.688;2023-04-21T15:57:52;10.20;;;1.60;;
75297;SDS011;63896;45.990;18.688;2023-04-21T16:00:55;7.82;;;1.60;;
75297;SDS011;63896;45.990;18.688;2023-04-21T16:03:58;5.45;;;1.83;;
75297;SDS011;63896;45.990;18.688;2023-04-21T16:07:02;5.70;;;1.80;;
75297;SDS011;63896;45.990;18.688;2023-04-21T16:10:05;9.20;;;1.85;;
75297;SDS011;63896;45.990;18.688;2023-04-21T16:13:11;10.30;;;1.80;;
75297;SDS011;63896;45.990;18.688;2023-04-21T16:16:13;13.20;;;2.00;;
75297;SDS011;63896;45.990;18.688;2023-04-21T16:19:16;6.13;;;2.15;;
75297;SDS011;63896;45.990;18.688;2023-04-21T16:22:19;8.02;;;2.08;;
75297;SDS011;63896;45.990;18.688;2023-04-21T16:25:22;9.15;;;2.50;;
75297;SDS011;63896;45.990;18.688;2023-04-21T16:28:26;14.63;;;2.60;;
75297;SDS011;63896;45.990;18.688;2023-04-21T16:31:34;8.13;;;2.30;;
75297;SDS011;63896;45.990;18.688;2023-04-21T16:34:37;8.18;;;2.30;;
75297;SDS011;63896;45.990;18.688;2023-04-21T16:37:41;12.82;;;2.85;;
75297;SDS011;63896;45.990;18.688;2023-04-21T16:40:45;11.32;;;2.25;;
75297;SDS011;63896;45.990;18.688;2023-04-21T16:43:48;8.50;;;2.43;;
75297;SDS011;63896;45.990;18.688;2023-04-21T16:46:51;12.60;;;2.33;;
75297;SDS011;63896;45.990;18.688;2023-04-21T16:49:54;15.90;;;2.63;;
75297;SDS011;63896;45.990;18.688;2023-04-21T16:52:57;14.30;;;3.05;;
75297;SDS011;63896;45.990;18.688;2023-04-21T16:56:00;12.88;;;2.83;;
75297;SDS011;63896;45.990;18.688;2023-04-21T16:59:02;9.17;;;2.73;;
75297;SDS011;63896;45.990;18.688;2023-04-21T17:02:08;16.63;;;3.42;;
75297;SDS011;63896;45.990;18.688;2023-04-21T17:05:11;11.95;;;3.28;;
75297;SDS011;63896;45.990;18.688;2023-04-21T17:08:13;8.93;;;3.50;;
75297;SDS011;63896;45.990;18.688;2023-04-21T17:11:19;10.45;;;3.50;;
75297;SDS011;63896;45.990;18.688;2023-04-21T17:14:22;11.70;;;3.67;;
75297;SDS011;63896;45.990;18.688;2023-04-21T17:17:25;15.43;;;3.80;;
75297;SDS011;63896;45.990;18.688;2023-04-21T17:20:29;8.88;;;3.45;;
75297;SDS011;63896;45.990;18.688;2023-04-21T17:23:32;13.85;;;4.03;;
75297;SDS011;63896;45.990;18.688;2023-04-21T17:26:35;12.32;;;3.08;;
75297;SDS011;63896;45.990;18.688;2023-04-21T17:29:39;8.37;;;3.83;;
75297;SDS011;63896;45.990;18.688;2023-04-21T17:32:42;17.40;;;4.20;;
75297;SDS011;63896;45.990;18.688;2023-04-21T17:35:45;14.77;;;4.05;;
75297;SDS011;63896;45.990;18.688;2023-04-21T17:39:04;12.30;;;3.72;;
75297;SDS011;63896;45.990;18.688;2023-04-21T17:42:07;12.85;;;3.13;;
75297;SDS011;63896;45.990;18.688;2023-04-21T17:45:10;11.37;;;4.17;;
75297;SDS011;63896;45.990;18.688;2023-04-21T17:51:49;17.23;;;5.45;;
75297;SDS011;63896;45.990;18.688;2023-04-21T17:54:52;19.50;;;7.20;;
75297;SDS011;63896;45.990;18.688;2023-04-21T17:57:55;25.73;;;10.38;;
75297;SDS011;63896;45.990;18.688;2023-04-21T18:00:58;22.87;;;10.33;;
75297;SDS011;63896;45.990;18.688;2023-04-21T18:04:01;29.23;;;9.95;;
75297;SDS011;63896;45.990;18.688;2023-04-21T18:07:06;26.92;;;9.20;;
75297;SDS011;63896;45.990;18.688;2023-04-21T18:10:09;18.08;;;7.78;;
75297;SDS011;63896;45.990;18.688;2023-04-21T18:13:14;17.85;;;7.57;;
75297;SDS011;63896;45.990;18.688;2023-04-21T18:16:17;25.93;;;8.30;;
75297;SDS011;63896;45.990;18.688;2023-04-21T18:19:21;22.08;;;8.77;;
75297;SDS011;63896;45.990;18.688;2023-04-21T18:22:24;21.70;;;8.65;;
75297;SDS011;63896;45.990;18.688;2023-04-21T18:25:27;18.23;;;9.00;;
75297;SDS011;63896;45.990;18.688;2023-04-21T18:28:43;28.10;;;12.63;;
75297;SDS011;63896;45.990;18.688;2023-04-21T18:31:47;34.33;;;14.60;;
75297;SDS011;63896;45.990;18.688;2023-04-21T18:34:50;37.83;;;13.82;;
75297;SDS011;63896;45.990;18.688;2023-04-21T18:37:53;34.47;;;14.07;;
75297;SDS011;63896;45.990;18.688;2023-04-21T18:40:56;36.28;;;16.25;;
75297;SDS011;63896;45.990;18.688;2023-04-21T18:43:59;37.72;;;15.25;;
75297;SDS011;63896;45.990;18.688;2023-04-21T18:47:02;46.40;;;16.53;;
75297;SDS011;63896;45.990;18.688;2023-04-21T18:50:06;40.70;;;17.08;;
75297;SDS011;63896;45.990;18.688;2023-04-21T18:53:10;48.08;;;18.67;;
75297;SDS011;63896;45.990;18.688;2023-04-21T18:56:13;39.50;;;18.23;;
75297;SDS011;63896;45.990;18.688;2023-04-21T18:59:16;37.30;;;17.80;;
75297;SDS011;63896;45.990;18.688;2023-04-21T19:02:20;36.17;;;17.63;;
75297;SDS011;63896;45.990;18.688;2023-04-21T19:05:23;37.53;;;17.67;;
75297;SDS011;63896;45.990;18.688;2023-04-21T19:08:26;33.72;;;16.08;;
75297;SDS011;63896;45.990;18.688;2023-04-21T19:11:44;31.98;;;14.52;;
75297;SDS011;63896;45.990;18.688;2023-04-21T19:14:47;25.70;;;12.50;;
75297;SDS011;63896;45.990;18.688;2023-04-21T19:17:51;31.00;;;11.77;;
75297;SDS011;63896;45.990;18.688;2023-04-21T19:20:54;27.77;;;11.13;;
75297;SDS011;63896;45.990;18.688;2023-04-21T19:23:57;24.58;;;11.38;;
75297;SDS011;63896;45.990;18.688;2023-04-21T19:27:01;32.38;;;11.30;;
75297;SDS011;63896;45.990;18.688;2023-04-21T19:30:05;20.27;;;9.90;;
75297;SDS011;63896;45.990;18.688;2023-04-21T19:33:09;26.33;;;11.07;;
75297;SDS011;63896;45.990;18.688;2023-04-21T19:36:12;21.10;;;10.43;;
75297;SDS011;63896;45.990;18.688;2023-04-21T19:39:15;21.83;;;10.23;;
75297;SDS011;63896;45.990;18.688;2023-04-21T19:42:18;22.08;;;10.73;;
75297;SDS011;63896;45.990;18.688;2023-04-21T19:45:21;23.02;;;11.35;;
75297;SDS011;63896;45.990;18.688;2023-04-21T19:48:25;24.60;;;11.07;;
75297;SDS011;63896;45.990;18.688;2023-04-21T19:51:28;18.30;;;11.15;;
75297;SDS011;63896;45.990;18.688;2023-04-21T19:54:31;24.70;;;10.45;;
75297;SDS011;63896;45.990;18.688;2023-04-21T19:57:34;20.17;;;10.00;;
75297;SDS011;63896;45.990;18.688;2023-04-21T20:00:37;21.65;;;9.82;;
75297;SDS011;63896;45.990;18.688;2023-04-21T20:03:41;16.13;;;8.80;;
75297;SDS011;63896;45.990;18.688;2023-04-21T20:06:44;17.08;;;8.85;;
75297;SDS011;63896;45.990;18.688;2023-04-21T20:09:47;22.08;;;8.50;;
75297;SDS011;63896;45.990;18.688;2023-04-21T20:12:50;19.10;;;8.40;;
75297;SDS011;63896;45.990;18.688;2023-04-21T20:15:52;18.15;;;8.38;;
75297;SDS011;63896;45.990;18.688;2023-04-21T20:18:57;17.60;;;8.63;;
75297;SDS011;63896;45.990;18.688;2023-04-21T20:22:00;16.13;;;8.25;;
75297;SDS011;63896;45.990;18.688;2023-04-21T20:25:03;17.20;;;8.57;;
75297;SDS011;63896;45.990;18.688;2023-04-21T20:28:07;22.17;;;7.97;;
75297;SDS011;63896;45.990;18.688;2023-04-21T20:31:11;21.10;;;7.85;;
75297;SDS011;63896;45.990;18.688;2023-04-21T20:34:15;15.67;;;8.40;;
75297;SDS011;63896;45.990;18.688;2023-04-21T20:37:18;18.20;;;9.30;;
75297;SDS011;63896;45.990;18.688;2023-04-21T20:40:22;16.70;;;7.57;;
75297;SDS011;63896;45.990;18.688;2023-04-21T20:43:26;19.05;;;8.43;;
75297;SDS011;63896;45.990;18.688;2023-04-21T20:46:29;22.25;;;8.52;;
75297;SDS011;63896;45.990;18.688;2023-04-21T20:49:32;16.00;;;8.00;;
75297;SDS011;63896;45.990;18.688;2023-04-21T20:52:35;17.58;;;8.48;;
75297;SDS011;63896;45.990;18.688;2023-04-21T20:55:38;21.67;;;8.23;;
75297;SDS011;63896;45.990;18.688;2023-04-21T20:58:41;16.35;;;8.68;;
75297;SDS011;63896;45.990;18.688;2023-04-21T21:01:44;15.38;;;8.00;;
75297;SDS011;63896;45.990;18.688;2023-04-21T21:04:47;15.73;;;8.40;;
75297;SDS011;63896;45.990;18.688;2023-04-21T21:07:50;18.63;;;8.50;;
75297;SDS011;63896;45.990;18.688;2023-04-21T21:10:53;15.52;;;7.75;;
75297;SDS011;63896;45.990;18.688;2023-04-21T21:13:56;15.82;;;7.78;;
75297;SDS011;63896;45.990;18.688;2023-04-21T21:16:58;18.50;;;8.00;;
75297;SDS011;63896;45.990;18.688;2023-04-21T21:20:02;14.47;;;6.70;;
75297;SDS011;63896;45.990;18.688;2023-04-21T21:23:06;13.45;;;7.55;;
75297;SDS011;63896;45.990;18.688;2023-04-21T21:26:09;13.98;;;7.93;;
75297;SDS011;63896;45.990;18.688;2023-04-21T21:29:12;15.27;;;7.45;;
75297;SDS011;63896;45.990;18.688;2023-04-21T21:32:15;14.63;;;7.45;;
75297;SDS011;63896;45.990;18.688;2023-04-21T21:35:18;18.37;;;7.30;;
75297;SDS011;63896;45.990;18.688;2023-04-21T21:38:21;13.13;;;7.00;;
75297;SDS011;63896;45.990;18.688;2023-04-21T21:41:24;18.48;;;7.63;;
75297;SDS011;63896;45.990;18.688;2023-04-21T21:44:27;19.30;;;7.53;;
75297;SDS011;63896;45.990;18.688;2023-04-21T21:47:31;15.32;;;7.15;;
75297;SDS011;63896;45.990;18.688;2023-04-21T21:50:37;10.83;;;6.47;;
75297;SDS011;63896;45.990;18.688;2023-04-21T21:53:39;12.75;;;7.20;;
75297;SDS011;63896;45.990;18.688;2023-04-21T21:56:42;15.50;;;6.60;;
75297;SDS011;63896;45.990;18.688;2023-04-21T21:59:46;11.40;;;6.80;;
75297;SDS011;63896;45.990;18.688;2023-04-21T22:02:50;14.00;;;6.80;;
75297;SDS011;63896;45.990;18.688;2023-04-21T22:05:53;12.63;;;6.97;;
75297;SDS011;63896;45.990;18.688;2023-04-21T22:08:56;12.32;;;6.60;;
75297;SDS011;63896;45.990;18.688;2023-04-21T22:12:07;16.10;;;6.82;;
75297;SDS011;63896;45.990;18.688;2023-04-21T22:15:10;21.27;;;6.78;;
75297;SDS011;63896;45.990;18.688;2023-04-21T22:18:13;11.00;;;6.57;;
75297;SDS011;63896;45.990;18.688;2023-04-21T22:21:16;17.87;;;6.80;;
75297;SDS011;63896;45.990;18.688;2023-04-21T22:24:18;16.55;;;7.38;;
75297;SDS011;63896;45.990;18.688;2023-04-21T22:27:21;13.20;;;7.00;;
75297;SDS011;63896;45.990;18.688;2023-04-21T22:30:24;28.40;;;12.13;;
75297;SDS011;63896;45.990;18.688;2023-04-21T22:33:27;23.95;;;11.63;;
75297;SDS011;63896;45.990;18.688;2023-04-21T22:36:30;32.80;;;15.80;;
75297;SDS011;63896;45.990;18.688;2023-04-21T22:39:33;33.67;;;16.42;;
75297;SDS011;63896;45.990;18.688;2023-04-21T22:42:37;34.67;;;16.23;;
75297;SDS011;63896;45.990;18.688;2023-04-21T22:45:42;39.95;;;18.70;;
75297;SDS011;63896;45.990;18.688;2023-04-21T22:48:45;34.75;;;18.45;;
75297;SDS011;63896;45.990;18.688;2023-04-21T22:51:52;35.27;;;17.53;;
75297;SDS011;63896;45.990;18.688;2023-04-21T22:54:55;37.03;;;18.00;;
75297;SDS011;63896;45.990;18.688;2023-04-21T22:57:58;32.50;;;16.77;;
75297;SDS011;63896;45.990;18.688;2023-04-21T23:01:01;33.40;;;18.20;;
75297;SDS011;63896;45.990;18.688;2023-04-21T23:04:04;32.33;;;16.33;;
75297;SDS011;63896;45.990;18.688;2023-04-21T23:07:07;36.93;;;16.10;;
75297;SDS011;63896;45.990;18.688;2023-04-21T23:10:10;27.05;;;15.25;;
75297;SDS011;63896;45.990;18.688;2023-04-21T23:13:13;27.50;;;15.13;;
75297;SDS011;63896;45.990;18.688;2023-04-21T23:16:16;30.27;;;15.55;;
75297;SDS011;63896;45.990;18.688;2023-04-21T23:19:18;34.10;;;16.17;;
75297;SDS011;63896;45.990;18.688;2023-04-21T23:22:22;40.17;;;18.77;;
75297;SDS011;63896;45.990;18.688;2023-04-21T23:25:27;36.88;;;19.38;;
75297;SDS011;63896;45.990;18.688;2023-04-21T23:28:30;43.42;;;20.95;;
75297;SDS011;63896;45.990;18.688;2023-04-21T23:31:33;46.70;;;22.17;;
75297;SDS011;63896;45.990;18.688;2023-04-21T23:34:36;48.47;;;22.10;;
75297;SDS011;63896;45.990;18.688;2023-04-21T23:37:39;45.90;;;19.97;;
75297;SDS011;63896;45.990;18.688;2023-04-21T23:40:42;35.97;;;17.63;;
75297;SDS011;63896;45.990;18.688;2023-04-21T23:43:45;29.85;;;15.45;;
75297;SDS011;63896;45.990;18.688;2023-04-21T23:46:48;30.10;;;14.43;;
75297;SDS011;63896;45.990;18.688;2023-04-21T23:49:51;24.50;;;13.20;;
75297;SDS011;63896;45.990;18.688;2023-04-21T23:52:56;29.87;;;12.73;;
75297;SDS011;63896;45.990;18.688;2023-04-21T23:55:59;26.83;;;12.43;;
75297;SDS011;63896;45.990;18.688;2023-04-21T23:59:02;27.38;;;10.93;;
